Time;durP1;ratioP1;P1;durP2;ratioP2;P2;SDS_P1;SDS_P2;PMS_P1;PMS_P2;Temp;Humidity;BMP_temperature;BMP_pressure;BME280_temperature;BME280_humidity;BME280_pressure;Samples;Min_cycle;Max_cycle;Signal;HPM_P1;HPM_P2
2021/07/30 00:01:37;;;;;;;;;;;25.60;67.30;;;;;;5125004;27;19962;-60
2021/07/30 00:04:05;;;;;;;;;;;25.50;67.20;;;;;;5132883;27;19930;-61
2021/07/30 00:06:32;;;;;;;;;;;25.60;67.40;;;;;;5136313;27;19923;-60
2021/07/30 00:08:59;;;;;;;;;;;25.60;67.40;;;;;;5133809;27;19945;-60
2021/07/30 00:11:26;;;;;;;;;;;25.50;67.30;;;;;;5135059;27;20342;-60
2021/07/30 00:13:53;;;;;;;;;;;25.60;67.40;;;;;;5134525;27;19931;-60
2021/07/30 00:16:20;;;;;;;;;;;25.60;67.40;;;;;;5118825;27;19939;-60
2021/07/30 00:18:47;;;;;;;;;;;25.60;67.30;;;;;;5136166;27;20014;-60
2021/07/30 00:21:14;;;;;;;;;;;25.50;67.30;;;;;;5136623;27;19923;-59
2021/07/30 00:23:41;;;;;;;;;;;25.50;67.30;;;;;;5133701;27;19966;-60
2021/07/30 00:26:08;;;;;;;;;;;25.50;67.30;;;;;;5135955;27;20386;-60
2021/07/30 00:28:35;;;;;;;;;;;25.50;67.30;;;;;;5136280;27;20438;-60
2021/07/30 00:31:02;;;;;;;;;;;25.50;67.30;;;;;;5134492;27;20010;-60
2021/07/30 00:33:29;;;;;;;;;;;25.50;67.40;;;;;;5118692;27;20375;-59
2021/07/30 00:35:56;;;;;;;;;;;25.50;67.40;;;;;;5125671;27;19930;-60
2021/07/30 00:38:23;;;;;;;;;;;25.50;67.40;;;;;;5131439;27;19972;-59
2021/07/30 00:40:50;;;;;;;;;;;25.40;67.40;;;;;;5135293;27;19923;-60
2021/07/30 00:43:18;;;;;;;;;;;25.50;67.50;;;;;;5135778;27;20010;-59
2021/07/30 00:45:45;;;;;;;;;;;25.50;67.50;;;;;;5123715;27;19928;-60
2021/07/30 00:48:13;;;;;;;;;;;25.40;67.50;;;;;;5128542;27;20018;-59
2021/07/30 00:50:42;;;;;;;;;;;25.50;67.40;;;;;;5135789;27;19938;-60
2021/07/30 00:53:09;;;;;;;;;;;25.40;67.40;;;;;;5127116;27;19927;-59
2021/07/30 00:55:36;;;;;;;;;;;25.40;67.40;;;;;;5118197;27;19979;-60
2021/07/30 00:58:03;;;;;;;;;;;25.40;67.40;;;;;;5123866;27;19991;-60
2021/07/30 01:00:30;;;;;;;;;;;25.40;67.40;;;;;;5134453;27;19962;-60
2021/07/30 01:03:00;;;;;;;;;;;25.40;67.40;;;;;;5132944;27;19923;-59
2021/07/30 01:05:29;;;;;;;;;;;25.40;67.30;;;;;;5134100;27;19931;-59
2021/07/30 01:07:59;;;;;;;;;;;25.40;67.30;;;;;;5135097;27;19952;-60
2021/07/30 01:10:26;;;;;;;;;;;25.40;67.30;;;;;;5133683;27;19929;-60
2021/07/30 01:12:53;;;;;;;;;;;25.40;67.40;;;;;;5134128;27;19923;-59
2021/07/30 01:15:21;;;;;;;;;;;25.40;67.50;;;;;;5134173;27;19923;-59
2021/07/30 01:17:48;;;;;;;;;;;25.40;67.40;;;;;;5133834;27;20338;-60
2021/07/30 01:20:15;;;;;;;;;;;25.40;67.40;;;;;;5133820;27;19923;-59
2021/07/30 01:22:49;;;;;;;;;;;25.40;67.40;;;;;;5134272;27;19927;-60
2021/07/30 01:25:16;;;;;;;;;;;25.40;67.40;;;;;;5134398;27;19924;-60
2021/07/30 01:27:43;;;;;;;;;;;25.40;67.30;;;;;;5134045;27;19976;-60
2021/07/30 01:30:10;;;;;;;;;;;25.40;67.40;;;;;;5133630;27;19924;-60
2021/07/30 01:32:37;;;;;;;;;;;25.30;67.20;;;;;;5133557;27;19968;-59
2021/07/30 01:35:04;;;;;;;;;;;25.30;67.30;;;;;;5134774;27;19923;-60
2021/07/30 01:37:32;;;;;;;;;;;25.30;67.30;;;;;;5131502;27;19930;-60
2021/07/30 01:39:59;;;;;;;;;;;25.30;67.40;;;;;;5133338;27;19924;-60
2021/07/30 01:42:27;;;;;;;;;;;25.30;67.40;;;;;;5133038;27;20395;-60
2021/07/30 01:44:54;;;;;;;;;;;25.30;67.30;;;;;;5134360;27;19931;-60
2021/07/30 01:47:22;;;;;;;;;;;25.30;67.30;;;;;;5133199;27;19973;-60
2021/07/30 01:49:51;;;;;;;;;;;25.30;67.30;;;;;;5123948;27;19924;-60
2021/07/30 01:52:19;;;;;;;;;;;25.30;67.30;;;;;;5124324;27;19924;-60
2021/07/30 01:54:47;;;;;;;;;;;25.30;67.40;;;;;;5132868;27;19992;-60
2021/07/30 01:57:16;;;;;;;;;;;25.30;67.40;;;;;;5132661;27;19927;-60
2021/07/30 01:59:43;;;;;;;;;;;25.30;67.40;;;;;;5132764;27;20086;-59
2021/07/30 02:02:10;;;;;;;;;;;25.30;67.40;;;;;;5128650;27;19977;-61
2021/07/30 02:04:37;;;;;;;;;;;25.30;67.40;;;;;;5120596;27;20010;-60
2021/07/30 02:07:04;;;;;;;;;;;25.30;67.30;;;;;;5134223;27;19990;-60
2021/07/30 02:09:31;;;;;;;;;;;25.30;67.30;;;;;;5133985;27;20607;-59
2021/07/30 02:11:58;;;;;;;;;;;25.30;67.40;;;;;;5131657;27;20279;-61
2021/07/30 02:14:28;;;;;;;;;;;25.30;67.40;;;;;;5114818;27;20047;-60
2021/07/30 02:16:58;;;;;;;;;;;25.30;67.40;;;;;;5132271;27;20417;-61
2021/07/30 02:19:25;;;;;;;;;;;25.30;67.40;;;;;;5133849;27;19923;-59
2021/07/30 02:21:54;;;;;;;;;;;25.20;67.40;;;;;;5132776;27;19923;-60
2021/07/30 02:24:22;;;;;;;;;;;25.20;67.40;;;;;;5133946;27;20433;-59
2021/07/30 02:26:49;;;;;;;;;;;25.20;67.50;;;;;;5133397;27;19928;-60
2021/07/30 02:29:16;;;;;;;;;;;25.20;67.40;;;;;;5133521;27;20032;-60
2021/07/30 02:31:43;;;;;;;;;;;25.20;67.50;;;;;;5134258;27;19927;-60
2021/07/30 02:34:10;;;;;;;;;;;25.20;67.50;;;;;;5133895;27;19923;-59
2021/07/30 02:36:41;;;;;;;;;;;25.20;67.50;;;;;;5116210;28;19924;-60
2021/07/30 02:39:09;;;;;;;;;;;25.20;67.40;;;;;;5130131;27;20367;-60
2021/07/30 02:41:36;;;;;;;;;;;25.20;67.40;;;;;;5133462;27;19959;-60
2021/07/30 02:44:03;;;;;;;;;;;25.20;67.40;;;;;;5132523;27;20014;-61
2021/07/30 02:46:30;;;;;;;;;;;25.20;67.40;;;;;;5132570;28;19969;-61
2021/07/30 02:48:57;;;;;;;;;;;25.10;67.30;;;;;;5115777;28;20014;-60
2021/07/30 02:51:24;;;;;;;;;;;25.20;67.30;;;;;;5123898;28;19971;-60
2021/07/30 02:53:51;;;;;;;;;;;25.20;67.30;;;;;;5123978;28;19924;-61
2021/07/30 02:56:17;;;;;;;;;;;25.20;67.30;;;;;;5112681;28;19923;-60
2021/07/30 02:58:44;;;;;;;;;;;25.10;67.20;;;;;;5130969;28;19973;-60
2021/07/30 03:01:11;;;;;;;;;;;25.10;67.20;;;;;;5133870;27;20320;-59
2021/07/30 03:03:38;;;;;;;;;;;25.10;67.20;;;;;;5119447;27;19923;-60
2021/07/30 03:06:05;;;;;;;;;;;25.10;67.30;;;;;;5137768;27;19974;-59
2021/07/30 03:08:32;;;;;;;;;;;25.10;67.20;;;;;;5136390;27;20018;-59
2021/07/30 03:10:59;;;;;;;;;;;25.10;67.20;;;;;;5135891;27;20022;-60
2021/07/30 03:13:26;;;;;;;;;;;25.10;67.20;;;;;;5136574;27;19963;-60
2021/07/30 03:15:56;;;;;;;;;;;25.10;67.20;;;;;;5136583;27;19923;-59
2021/07/30 03:18:26;;;;;;;;;;;25.10;67.10;;;;;;5118591;27;19932;-59
2021/07/30 03:20:53;;;;;;;;;;;25.10;67.10;;;;;;5136127;27;19923;-60
2021/07/30 03:23:20;;;;;;;;;;;25.10;67.00;;;;;;5136191;27;19924;-60
2021/07/30 03:25:47;;;;;;;;;;;25.10;67.00;;;;;;5136189;27;20005;-60
2021/07/30 03:28:14;;;;;;;;;;;25.10;67.00;;;;;;5119899;27;19932;-60
2021/07/30 03:30:40;;;;;;;;;;;25.10;67.10;;;;;;5136853;27;19924;-59
2021/07/30 03:33:07;;;;;;;;;;;25.10;67.10;;;;;;5137167;27;19936;-59
2021/07/30 03:35:34;;;;;;;;;;;25.10;67.10;;;;;;5136291;27;20254;-59
2021/07/30 03:38:01;;;;;;;;;;;25.10;67.20;;;;;;5122105;27;19923;-60
2021/07/30 03:40:28;;;;;;;;;;;25.10;67.10;;;;;;5132267;27;20443;-60
2021/07/30 03:42:55;;;;;;;;;;;25.10;67.10;;;;;;5135293;27;19931;-60
2021/07/30 03:45:22;;;;;;;;;;;25.10;67.10;;;;;;5135643;27;19952;-60
2021/07/30 03:47:49;;;;;;;;;;;25.10;67.10;;;;;;5135570;27;19962;-60
2021/07/30 03:50:16;;;;;;;;;;;25.10;67.10;;;;;;5134046;27;19923;-59
2021/07/30 03:52:43;;;;;;;;;;;25.10;67.10;;;;;;5134357;27;19923;-60
2021/07/30 03:55:10;;;;;;;;;;;25.00;67.20;;;;;;5135962;27;19923;-61
2021/07/30 03:57:37;;;;;;;;;;;25.00;67.20;;;;;;5133212;28;20030;-60
2021/07/30 04:00:04;;;;;;;;;;;25.00;67.20;;;;;;5134045;28;19963;-60
2021/07/30 04:02:31;;;;;;;;;;;25.10;67.30;;;;;;5132648;28;20006;-60
2021/07/30 04:04:59;;;;;;;;;;;25.10;67.20;;;;;;5130424;28;20391;-60
2021/07/30 04:07:26;;;;;;;;;;;25.10;67.20;;;;;;5119068;28;19957;-60
2021/07/30 04:09:54;;;;;;;;;;;25.10;67.20;;;;;;5134039;28;19931;-60
2021/07/30 04:12:22;;;;;;;;;;;25.10;67.10;;;;;;5134871;27;19923;-59
2021/07/30 04:14:49;;;;;;;;;;;25.10;67.20;;;;;;5117146;28;20015;-61
2021/07/30 04:17:16;;;;;;;;;;;25.10;67.20;;;;;;5134998;28;19968;-60
2021/07/30 04:19:43;;;;;;;;;;;25.10;67.10;;;;;;5134335;28;19923;-59
2021/07/30 04:22:11;;;;;;;;;;;25.10;67.10;;;;;;5133824;28;20282;-60
2021/07/30 04:24:39;;;;;;;;;;;25.10;67.10;;;;;;5133754;28;20386;-60
2021/07/30 04:27:06;;;;;;;;;;;25.10;67.10;;;;;;5133547;28;19980;-60
2021/07/30 04:29:37;;;;;;;;;;;25.10;67.00;;;;;;5134421;28;20029;-60
2021/07/30 04:32:04;;;;;;;;;;;25.10;67.00;;;;;;5120451;28;20505;-60
2021/07/30 04:34:31;;;;;;;;;;;25.10;67.00;;;;;;5130118;28;19959;-60
2021/07/30 04:36:58;;;;;;;;;;;25.10;67.00;;;;;;5133037;28;20038;-60
2021/07/30 04:39:25;;;;;;;;;;;25.20;67.00;;;;;;5132263;28;20010;-60
2021/07/30 04:41:52;;;;;;;;;;;25.20;66.90;;;;;;5133436;28;20350;-60
2021/07/30 04:44:19;;;;;;;;;;;25.20;66.80;;;;;;5133489;28;19924;-60
2021/07/30 04:46:46;;;;;;;;;;;25.20;66.80;;;;;;5133621;28;19945;-61
2021/07/30 04:49:13;;;;;;;;;;;25.20;66.70;;;;;;5115554;28;19933;-60
2021/07/30 04:51:40;;;;;;;;;;;25.30;66.70;;;;;;5134859;28;19973;-61
2021/07/30 04:54:07;;;;;;;;;;;25.30;66.60;;;;;;5133546;28;19924;-59
2021/07/30 04:56:34;;;;;;;;;;;25.30;66.60;;;;;;5045150;27;1962125;-60
2021/07/30 04:59:01;;;;;;;;;;;25.30;66.50;;;;;;5135498;27;19923;-60
2021/07/30 05:01:30;;;;;;;;;;;25.30;66.50;;;;;;5135316;27;19924;-60
2021/07/30 05:03:57;;;;;;;;;;;25.40;66.40;;;;;;5135552;27;20037;-61
2021/07/30 05:06:25;;;;;;;;;;;25.30;66.30;;;;;;5132965;27;19924;-59
2021/07/30 05:08:52;;;;;;;;;;;25.40;66.20;;;;;;5133843;27;19923;-59
2021/07/30 05:11:19;;;;;;;;;;;25.40;66.10;;;;;;5135533;27;20391;-60
2021/07/30 05:13:46;;;;;;;;;;;25.50;66.00;;;;;;5117374;27;20015;-60
2021/07/30 05:16:13;;;;;;;;;;;25.50;65.90;;;;;;5116256;27;20023;-61
2021/07/30 05:18:41;;;;;;;;;;;25.60;65.80;;;;;;5134978;27;19923;-60
2021/07/30 05:21:12;;;;;;;;;;;25.60;65.70;;;;;;5133165;27;20324;-60
2021/07/30 05:23:39;;;;;;;;;;;25.60;65.60;;;;;;5117295;27;20391;-60
2021/07/30 05:26:06;;;;;;;;;;;25.70;65.60;;;;;;5133693;27;19954;-60
2021/07/30 05:28:34;;;;;;;;;;;25.70;65.40;;;;;;5119059;27;20068;-60
2021/07/30 05:31:02;;;;;;;;;;;25.70;65.50;;;;;;5129502;27;20352;-60
2021/07/30 05:33:29;;;;;;;;;;;25.70;65.30;;;;;;5133617;27;19923;-60
2021/07/30 05:35:56;;;;;;;;;;;25.80;65.30;;;;;;5131550;27;20286;-60
2021/07/30 05:38:23;;;;;;;;;;;25.80;65.20;;;;;;5131980;27;20399;-59
2021/07/30 05:40:50;;;;;;;;;;;25.80;65.10;;;;;;5132144;27;19969;-60
2021/07/30 05:43:17;;;;;;;;;;;25.90;65.20;;;;;;5133442;27;19958;-59
2021/07/30 05:45:44;;;;;;;;;;;25.90;65.00;;;;;;5132741;27;20018;-59
2021/07/30 05:48:11;;;;;;;;;;;25.90;64.90;;;;;;5132292;27;20010;-59
2021/07/30 05:50:37;;;;;;;;;;;25.90;64.80;;;;;;5113656;27;19969;-59
2021/07/30 05:53:04;;;;;;;;;;;25.90;64.80;;;;;;5132111;27;19980;-60
2021/07/30 05:55:31;;;;;;;;;;;26.00;64.80;;;;;;5134214;27;20018;-59
2021/07/30 05:58:01;;;;;;;;;;;26.00;64.70;;;;;;5134194;27;20022;-59
2021/07/30 06:00:28;;;;;;;;;;;26.00;64.60;;;;;;5134307;27;19928;-59
2021/07/30 06:02:55;;;;;;;;;;;26.00;64.60;;;;;;5133104;27;19929;-59
2021/07/30 06:05:23;;;;;;;;;;;26.00;64.50;;;;;;5115290;27;19963;-59
2021/07/30 06:07:50;;;;;;;;;;;26.00;64.50;;;;;;5134038;27;20006;-60
2021/07/30 06:10:17;;;;;;;;;;;26.10;64.60;;;;;;5116345;27;20002;-59
2021/07/30 06:12:44;;;;;;;;;;;26.10;64.60;;;;;;5132960;27;19970;-59
2021/07/30 06:15:11;;;;;;;;;;;26.10;64.50;;;;;;5115245;27;19924;-60
2021/07/30 06:17:38;;;;;;;;;;;26.10;64.50;;;;;;5116618;27;19924;-60
2021/07/30 06:20:07;;;;;;;;;;;26.10;64.30;;;;;;5132003;27;20006;-60
2021/07/30 06:22:37;;;;;;;;;;;26.20;64.20;;;;;;5115663;27;19943;-60
2021/07/30 06:25:05;;;;;;;;;;;26.20;64.00;;;;;;5115956;27;19993;-59
2021/07/30 06:27:34;;;;;;;;;;;26.30;63.90;;;;;;5128825;27;20268;-59
2021/07/30 06:30:02;;;;;;;;;;;26.30;63.70;;;;;;5131467;27;19924;-60
2021/07/30 06:32:29;;;;;;;;;;;26.40;63.60;;;;;;5133609;27;19924;-59
2021/07/30 06:34:57;;;;;;;;;;;26.40;63.60;;;;;;5133855;27;19923;-60
2021/07/30 06:37:24;;;;;;;;;;;26.40;63.60;;;;;;5125223;27;19923;-60
2021/07/30 06:39:50;;;;;;;;;;;26.40;63.50;;;;;;5133957;27;19973;-60
2021/07/30 06:42:17;;;;;;;;;;;26.40;63.50;;;;;;5131379;27;19923;-60
2021/07/30 06:44:47;;;;;;;;;;;26.40;63.50;;;;;;5133821;27;20355;-60
2021/07/30 06:47:14;;;;;;;;;;;26.40;63.40;;;;;;5133669;27;20006;-59
2021/07/30 06:49:41;;;;;;;;;;;26.40;63.50;;;;;;5132229;28;19930;-60
2021/07/30 06:52:08;;;;;;;;;;;26.40;63.40;;;;;;5132134;28;20422;-60
2021/07/30 06:54:35;;;;;;;;;;;26.30;63.50;;;;;;5133300;28;19953;-60
2021/07/30 06:57:03;;;;;;;;;;;26.40;63.60;;;;;;5133237;28;20367;-60
2021/07/30 06:59:29;;;;;;;;;;;26.40;63.60;;;;;;5133588;28;20319;-60
2021/07/30 07:01:56;;;;;;;;;;;26.40;63.60;;;;;;5133390;28;19923;-60
2021/07/30 07:04:24;;;;;;;;;;;26.40;63.70;;;;;;5133364;28;19923;-60
2021/07/30 07:06:51;;;;;;;;;;;26.40;63.70;;;;;;5132683;28;19924;-60
2021/07/30 07:09:18;;;;;;;;;;;26.40;63.70;;;;;;5132862;28;19924;-60
2021/07/30 07:11:45;;;;;;;;;;;26.40;63.80;;;;;;5133555;28;19976;-60
2021/07/30 07:14:13;;;;;;;;;;;26.40;63.70;;;;;;5132026;28;19924;-60
2021/07/30 07:16:43;;;;;;;;;;;26.40;63.60;;;;;;5132533;28;19924;-60
2021/07/30 07:19:10;;;;;;;;;;;26.40;63.70;;;;;;5132669;28;20064;-59
2021/07/30 07:21:38;;;;;;;;;;;26.50;63.70;;;;;;5131846;28;19924;-60
2021/07/30 07:24:05;;;;;;;;;;;26.50;63.70;;;;;;5131982;28;19927;-60
2021/07/30 07:26:35;;;;;;;;;;;26.50;63.70;;;;;;5130607;28;19959;-60
2021/07/30 07:29:03;;;;;;;;;;;26.50;63.60;;;;;;5130554;28;19924;-60
2021/07/30 07:31:30;;;;;;;;;;;26.50;63.70;;;;;;5131940;28;19953;-60
2021/07/30 07:33:57;;;;;;;;;;;26.50;63.70;;;;;;5130517;28;19997;-60
2021/07/30 07:36:24;;;;;;;;;;;26.50;63.70;;;;;;5130137;28;19945;-60
2021/07/30 07:38:51;;;;;;;;;;;26.50;63.80;;;;;;5133223;28;19972;-60
2021/07/30 07:41:18;;;;;;;;;;;26.60;63.80;;;;;;5132953;28;19974;-60
2021/07/30 07:43:45;;;;;;;;;;;26.50;63.70;;;;;;5130296;28;20007;-60
2021/07/30 07:46:12;;;;;;;;;;;26.50;63.70;;;;;;5131459;27;19927;-60
2021/07/30 07:48:38;;;;;;;;;;;26.60;63.80;;;;;;5136888;27;20272;-60
2021/07/30 07:51:05;;;;;;;;;;;26.60;63.70;;;;;;5132026;27;20367;-60
2021/07/30 07:53:32;;;;;;;;;;;26.60;63.70;;;;;;5123332;27;19924;-60
2021/07/30 07:56:03;;;;;;;;;;;26.70;63.80;;;;;;5133762;27;19923;-60
2021/07/30 07:58:31;;;;;;;;;;;26.60;63.90;;;;;;5120767;27;20038;-60
2021/07/30 08:00:58;;;;;;;;;;;26.70;63.90;;;;;;5136717;27;20035;-60
2021/07/30 08:03:26;;;;;;;;;;;26.70;63.90;;;;;;5134471;27;20439;-60
2021/07/30 08:05:53;;;;;;;;;;;26.70;63.80;;;;;;5119289;27;20316;-60
2021/07/30 08:08:20;;;;;;;;;;;26.70;63.70;;;;;;5136732;27;19953;-60
2021/07/30 08:10:47;;;;;;;;;;;26.70;63.60;;;;;;5117097;27;19972;-60
2021/07/30 08:13:15;;;;;;;;;;;26.70;63.60;;;;;;5117213;27;20402;-60
2021/07/30 08:15:42;;;;;;;;;;;26.70;63.80;;;;;;5135044;27;19976;-60
2021/07/30 08:18:09;;;;;;;;;;;26.80;63.80;;;;;;5134966;27;20291;-60
2021/07/30 08:20:36;;;;;;;;;;;26.80;63.80;;;;;;5135298;27;19931;-60
2021/07/30 08:23:04;;;;;;;;;;;26.80;63.70;;;;;;5134849;27;19980;-60
2021/07/30 08:25:31;;;;;;;;;;;26.80;63.60;;;;;;5134821;27;19931;-60
2021/07/30 08:28:01;;;;;;;;;;;26.90;63.60;;;;;;5134855;27;19958;-60
2021/07/30 08:30:28;;;;;;;;;;;26.90;63.50;;;;;;5135942;27;19923;-60
2021/07/30 08:32:55;;;;;;;;;;;26.90;63.40;;;;;;5135734;27;20006;-61
2021/07/30 08:35:22;;;;;;;;;;;26.90;63.40;;;;;;5132711;27;19927;-61
2021/07/30 08:37:49;;;;;;;;;;;26.90;63.20;;;;;;5128100;27;19923;-60
2021/07/30 08:40:16;;;;;;;;;;;27.00;63.30;;;;;;5135938;27;19924;-60
2021/07/30 08:42:43;;;;;;;;;;;27.00;63.40;;;;;;5134612;27;20038;-60
2021/07/30 08:45:10;;;;;;;;;;;27.00;63.20;;;;;;5135925;27;19927;-60
2021/07/30 08:47:37;;;;;;;;;;;27.00;63.40;;;;;;5129170;27;19989;-61
2021/07/30 08:50:04;;;;;;;;;;;27.00;63.40;;;;;;5122843;27;19977;-61
2021/07/30 08:52:36;;;;;;;;;;;27.00;63.30;;;;;;5131322;27;19924;-60
2021/07/30 08:55:04;;;;;;;;;;;27.10;63.40;;;;;;5120772;27;20341;-60
2021/07/30 08:57:31;;;;;;;;;;;27.10;63.30;;;;;;5135176;27;19972;-60
2021/07/30 09:00:09;;;;;;;;;;;27.10;63.50;;;;;;5133392;27;19929;-60
2021/07/30 09:02:36;;;;;;;;;;;27.10;63.40;;;;;;5134058;27;19966;-60
2021/07/30 09:05:31;;;;;;;;;;;27.10;63.40;;;;;;5115413;27;20363;-61
2021/07/30 09:07:59;;;;;;;;;;;27.10;63.30;;;;;;5118520;27;20333;-60
2021/07/30 09:10:33;;;;;;;;;;;27.10;63.40;;;;;;5131907;27;19968;-61
2021/07/30 09:13:13;;;;;;;;;;;27.10;63.40;;;;;;5121296;27;20030;-60
2021/07/30 09:15:40;;;;;;;;;;;27.20;63.40;;;;;;5133689;27;19923;-60
2021/07/30 09:18:08;;;;;;;;;;;27.20;63.40;;;;;;5130897;27;19930;-60
2021/07/30 09:20:35;;;;;;;;;;;27.20;63.40;;;;;;5117522;27;19963;-61
2021/07/30 09:23:02;;;;;;;;;;;27.20;63.50;;;;;;5114174;27;19923;-60
2021/07/30 09:25:35;;;;;;;;;;;27.20;63.70;;;;;;5134935;27;19927;-59
2021/07/30 09:28:05;;;;;;;;;;;27.20;63.60;;;;;;5134915;27;19923;-60
2021/07/30 09:30:33;;;;;;;;;;;27.20;63.50;;;;;;5116215;27;19923;-61
2021/07/30 09:33:01;;;;;;;;;;;27.30;63.60;;;;;;5134625;27;20442;-60
2021/07/30 09:35:28;;;;;;;;;;;27.20;63.40;;;;;;5131073;27;19924;-60
2021/07/30 09:38:16;;;;;;;;;;;27.20;63.70;;;;;;5133903;27;19975;-60
2021/07/30 09:40:44;;;;;;;;;;;27.30;63.60;;;;;;5133641;27;20383;-60
2021/07/30 09:43:21;;;;;;;;;;;27.30;63.40;;;;;;5134363;27;19967;-62
2021/07/30 09:45:49;;;;;;;;;;;27.30;63.20;;;;;;5133901;27;19938;-61
2021/07/30 09:48:17;;;;;;;;;;;27.20;63.40;;;;;;5134017;27;20398;-60
2021/07/30 09:50:44;;;;;;;;;;;27.30;63.50;;;;;;5116464;27;19923;-60
2021/07/30 09:53:14;;;;;;;;;;;27.30;63.20;;;;;;5134770;27;19951;-61
2021/07/30 09:55:41;;;;;;;;;;;27.30;62.90;;;;;;5116989;27;20335;-60
2021/07/30 09:58:08;;;;;;;;;;;27.30;62.90;;;;;;5097964;28;19923;-61
2021/07/30 10:00:36;;;;;;;;;;;27.40;62.80;;;;;;5115284;27;19975;-60
2021/07/30 10:03:07;;;;;;;;;;;27.40;62.80;;;;;;5132644;27;19935;-61
2021/07/30 10:05:35;;;;;;;;;;;27.40;63.50;;;;;;5134381;27;19930;-61
2021/07/30 10:08:05;;;;;;;;;;;27.40;62.80;;;;;;5133955;27;19927;-61
2021/07/30 10:10:33;;;;;;;;;;;27.40;62.80;;;;;;5114770;27;19928;-60
2021/07/30 10:13:05;;;;;;;;;;;27.30;62.60;;;;;;5133065;27;19930;-60
2021/07/30 10:15:32;;;;;;;;;;;27.30;62.40;;;;;;5132787;27;20343;-61
2021/07/30 10:18:00;;;;;;;;;;;27.40;62.50;;;;;;5133856;27;19955;-60
2021/07/30 10:20:27;;;;;;;;;;;27.40;62.40;;;;;;5132299;27;20546;-60
2021/07/30 10:23:00;;;;;;;;;;;27.50;62.20;;;;;;5131550;27;20353;-61
2021/07/30 10:25:29;;;;;;;;;;;27.50;62.20;;;;;;5133646;27;20010;-60
2021/07/30 10:27:58;;;;;;;;;;;27.50;62.00;;;;;;5131435;27;19923;-62
2021/07/30 10:30:25;;;;;;;;;;;27.50;61.90;;;;;;5096595;27;19927;-61
2021/07/30 10:32:56;;;;;;;;;;;27.60;61.90;;;;;;5133972;27;19930;-61
2021/07/30 10:35:25;;;;;;;;;;;27.60;61.70;;;;;;5130631;27;19970;-60
2021/07/30 10:38:24;;;;;;;;;;;27.70;61.50;;;;;;5123096;27;19923;-61
2021/07/30 10:41:08;;;;;;;;;;;27.70;61.30;;;;;;5040750;28;19984;-61
2021/07/30 10:43:51;;;;;;;;;;;27.80;61.00;;;;;;5043588;28;19925;-61
2021/07/30 10:46:18;;;;;;;;;;;27.90;60.90;;;;;;5048918;28;19968;-60
2021/07/30 10:48:46;;;;;;;;;;;27.90;60.70;;;;;;5049456;28;19925;-60
2021/07/30 10:51:24;;;;;;;;;;;27.90;60.50;;;;;;5033738;28;19975;-62
2021/07/30 10:53:53;;;;;;;;;;;28.00;60.50;;;;;;5050260;28;20359;-61
2021/07/30 10:56:20;;;;;;;;;;;28.00;60.40;;;;;;5048855;28;20003;-61
2021/07/30 10:58:50;;;;;;;;;;;28.00;60.30;;;;;;5048674;28;19925;-61
2021/07/30 11:01:21;;;;;;;;;;;28.00;60.10;;;;;;5039912;28;20397;-61
2021/07/30 11:03:48;;;;;;;;;;;28.00;60.00;;;;;;5040782;28;20016;-61
2021/07/30 11:06:24;;;;;;;;;;;28.00;60.10;;;;;;5049251;28;19929;-60
2021/07/30 11:09:00;;;;;;;;;;;28.00;60.10;;;;;;5048772;28;19924;-61
2021/07/30 11:11:36;;;;;;;;;;;28.00;60.30;;;;;;5048750;28;20416;-61
2021/07/30 11:14:26;;;;;;;;;;;27.90;60.20;;;;;;5046375;28;19929;-62
2021/07/30 11:16:55;;;;;;;;;;;27.90;60.20;;;;;;5061994;28;19924;-60
2021/07/30 11:19:23;;;;;;;;;;;27.90;60.20;;;;;;5104828;28;20257;-61
2021/07/30 11:21:51;;;;;;;;;;;27.90;60.00;;;;;;5112800;28;19977;-61
2021/07/30 11:24:19;;;;;;;;;;;28.00;60.20;;;;;;5117047;28;19963;-60
2021/07/30 11:26:46;;;;;;;;;;;28.00;60.00;;;;;;5115407;28;20307;-61
2021/07/30 11:29:26;;;;;;;;;;;28.00;60.00;;;;;;5114466;28;20044;-61
2021/07/30 11:31:56;;;;;;;;;;;28.00;59.80;;;;;;5116544;28;19923;-60
2021/07/30 11:34:30;;;;;;;;;;;28.00;59.80;;;;;;5115148;28;20401;-60
2021/07/30 11:36:58;;;;;;;;;;;28.00;59.80;;;;;;5109002;28;19924;-61
2021/07/30 11:39:31;;;;;;;;;;;28.00;59.70;;;;;;5104587;28;20295;-61
2021/07/30 11:41:59;;;;;;;;;;;28.00;59.70;;;;;;5116701;27;20442;-61
2021/07/30 11:44:26;;;;;;;;;;;27.90;59.70;;;;;;5115547;28;20383;-60
2021/07/30 11:46:54;;;;;;;;;;;27.90;59.80;;;;;;5116449;28;19968;-61
2021/07/30 11:49:31;;;;;;;;;;;27.90;59.90;;;;;;5114873;28;20367;-60
2021/07/30 11:51:59;;;;;;;;;;;27.80;59.80;;;;;;5113658;28;20010;-61
2021/07/30 11:54:27;;;;;;;;;;;27.80;59.80;;;;;;5115969;27;20348;-61
2021/07/30 11:56:54;;;;;;;;;;;27.80;59.90;;;;;;5134873;27;20447;-61
2021/07/30 11:59:21;;;;;;;;;;;27.80;59.90;;;;;;5118178;27;19927;-60
2021/07/30 12:02:04;;;;;;;;;;;27.70;59.90;;;;;;5134565;27;19931;-61
2021/07/30 12:04:32;;;;;;;;;;;27.70;60.00;;;;;;5120774;27;19970;-60
2021/07/30 12:07:14;;;;;;;;;;;27.70;59.90;;;;;;5135514;27;19923;-61
2021/07/30 12:09:43;;;;;;;;;;;27.70;60.00;;;;;;5136188;27;19973;-60
2021/07/30 12:12:12;;;;;;;;;;;27.70;60.00;;;;;;5133763;27;19959;-60
2021/07/30 12:14:47;;;;;;;;;;;27.60;59.80;;;;;;5134078;27;20014;-61
2021/07/30 12:17:15;;;;;;;;;;;27.70;60.00;;;;;;5134975;27;19924;-61
2021/07/30 12:19:43;;;;;;;;;;;27.70;60.00;;;;;;5136341;27;19924;-61
2021/07/30 12:22:10;;;;;;;;;;;27.60;59.80;;;;;;5134777;27;19927;-61
2021/07/30 12:24:48;;;;;;;;;;;27.60;59.80;;;;;;5135243;27;19966;-61
2021/07/30 12:27:19;;;;;;;;;;;27.60;59.80;;;;;;5135627;27;20302;-61
2021/07/30 12:29:47;;;;;;;;;;;27.60;59.80;;;;;;5135484;27;20321;-60
2021/07/30 12:32:18;;;;;;;;;;;27.60;59.80;;;;;;5116740;27;19963;-60
2021/07/30 12:34:55;;;;;;;;;;;27.60;59.70;;;;;;5136131;27;19924;-60
2021/07/30 12:37:22;;;;;;;;;;;27.60;59.70;;;;;;5134144;27;20343;-61
2021/07/30 12:39:51;;;;;;;;;;;27.60;59.70;;;;;;5118594;27;20059;-61
2021/07/30 12:42:19;;;;;;;;;;;27.60;59.70;;;;;;5117979;27;19959;-60
2021/07/30 12:45:05;;;;;;;;;;;27.60;59.70;;;;;;5134064;27;19957;-61
2021/07/30 12:47:34;;;;;;;;;;;27.60;59.60;;;;;;5135100;27;19924;-61
2021/07/30 12:50:20;;;;;;;;;;;27.60;59.60;;;;;;5134799;27;19923;-61
2021/07/30 12:53:03;;;;;;;;;;;27.60;59.70;;;;;;5133313;27;19931;-61
2021/07/30 12:55:30;;;;;;;;;;;27.50;59.60;;;;;;5134693;27;19927;-61
2021/07/30 12:57:57;;;;;;;;;;;27.60;59.60;;;;;;5134429;27;20379;-60
2021/07/30 13:00:31;;;;;;;;;;;27.60;59.50;;;;;;5134299;27;20333;-61
2021/07/30 13:02:59;;;;;;;;;;;27.50;59.50;;;;;;5135570;27;19988;-60
2021/07/30 13:05:27;;;;;;;;;;;27.50;59.50;;;;;;5133248;27;19993;-61
2021/07/30 13:07:54;;;;;;;;;;;27.50;59.60;;;;;;5132757;27;20011;-61
2021/07/30 13:10:22;;;;;;;;;;;27.50;59.50;;;;;;5116124;27;20018;-61
2021/07/30 13:12:49;;;;;;;;;;;27.50;59.50;;;;;;5135260;27;19924;-61
2021/07/30 13:15:16;;;;;;;;;;;27.50;59.50;;;;;;5133996;27;20010;-60
2021/07/30 13:17:43;;;;;;;;;;;27.50;59.60;;;;;;5135184;27;19924;-61
2021/07/30 13:20:10;;;;;;;;;;;27.50;59.60;;;;;;5133738;27;20018;-61
2021/07/30 13:22:38;;;;;;;;;;;27.50;59.50;;;;;;5135201;27;19954;-61
2021/07/30 13:25:06;;;;;;;;;;;27.50;59.50;;;;;;5132341;27;19999;-61
2021/07/30 13:27:33;;;;;;;;;;;27.50;59.50;;;;;;5124744;27;19970;-61
2021/07/30 13:30:00;;;;;;;;;;;27.50;59.50;;;;;;5080753;28;19976;-60
2021/07/30 13:32:27;;;;;;;;;;;27.50;59.40;;;;;;5125083;27;19973;-61
2021/07/30 13:34:54;;;;;;;;;;;27.50;59.40;;;;;;5134633;27;20025;-61
2021/07/30 13:37:21;;;;;;;;;;;27.50;59.40;;;;;;5122254;27;20451;-61
2021/07/30 13:39:48;;;;;;;;;;;27.50;59.50;;;;;;5115570;27;19923;-60
2021/07/30 13:42:15;;;;;;;;;;;27.50;59.40;;;;;;5133474;27;19966;-61
2021/07/30 13:44:43;;;;;;;;;;;27.50;59.20;;;;;;5132088;27;19970;-61
2021/07/30 13:47:10;;;;;;;;;;;27.50;59.30;;;;;;5118476;27;20382;-61
2021/07/30 13:49:37;;;;;;;;;;;27.50;59.20;;;;;;5133041;27;19923;-60
2021/07/30 13:52:04;;;;;;;;;;;27.50;59.30;;;;;;5114714;27;19955;-60
2021/07/30 13:54:31;;;;;;;;;;;27.50;59.30;;;;;;5132743;27;19972;-61
2021/07/30 13:56:58;;;;;;;;;;;27.50;59.30;;;;;;5134072;27;20353;-60
2021/07/30 13:59:25;;;;;;;;;;;27.50;59.20;;;;;;5116175;27;19923;-60
2021/07/30 14:01:54;;;;;;;;;;;27.50;59.20;;;;;;5133573;27;19923;-60
2021/07/30 14:04:21;;;;;;;;;;;27.50;59.10;;;;;;5133983;27;19971;-61
2021/07/30 14:06:48;;;;;;;;;;;27.50;59.10;;;;;;5133276;27;19993;-61
2021/07/30 14:09:15;;;;;;;;;;;27.50;59.20;;;;;;5131487;27;19973;-61
2021/07/30 14:11:42;;;;;;;;;;;27.50;59.20;;;;;;5133076;27;19923;-61
2021/07/30 14:14:09;;;;;;;;;;;27.50;59.10;;;;;;5132860;27;19972;-60
2021/07/30 14:16:36;;;;;;;;;;;27.50;59.10;;;;;;5132613;27;19923;-61
2021/07/30 14:19:03;;;;;;;;;;;27.60;59.20;;;;;;5133839;27;19924;-60
2021/07/30 14:21:30;;;;;;;;;;;27.60;59.00;;;;;;5132025;27;20264;-61
2021/07/30 14:23:57;;;;;;;;;;;27.60;59.10;;;;;;5130073;27;19927;-60